Time;durP1;ratioP1;P1;durP2;ratioP2;P2;SDS_P1;SDS_P2;PMS_P1;PMS_P2;Temp;Humidity;BMP_temperature;BMP_pressure;BME280_temperature;BME280_humidity;BME280_pressure;Samples;Min_cycle;Max_cycle;Signal;HPM_P1;HPM_P2
2021/05/12 00:01:11;;;;;;;8.57;2.08;;;;;;;9.20;72.41;100159.16;5021933;28;20054;-76
2021/05/12 00:03:36;;;;;;;9.10;1.75;;;;;;;9.17;72.22;100155.84;5004335;28;20029;-77
2021/05/12 00:06:02;;;;;;;10.45;2.03;;;;;;;9.14;72.20;100148.13;5008878;28;20036;-77
2021/05/12 00:08:28;;;;;;;7.20;1.48;;;;;;;9.15;72.11;100147.00;5040552;28;20125;-76
2021/05/12 00:10:53;;;;;;;6.85;1.63;;;;;;;9.15;72.02;100146.16;5011342;28;20032;-77
2021/05/12 00:13:19;;;;;;;9.48;1.98;;;;;;;9.08;72.32;100152.06;5042212;28;20024;-76
2021/05/12 00:15:44;;;;;;;8.18;2.53;;;;;;;9.07;72.25;100149.59;5041680;28;20330;-77
2021/05/12 00:18:11;;;;;;;7.43;1.27;;;;;;;9.03;72.20;100149.34;5026344;28;20029;-77
2021/05/12 00:20:37;;;;;;;7.75;2.38;;;;;;;9.01;72.36;100156.28;5041508;28;20108;-76
2021/05/12 00:23:18;;;;;;;9.45;1.58;;;;;;;8.94;72.63;100146.41;5037176;28;20029;-76
2021/05/12 00:25:44;;;;;;;8.00;1.52;;;;;;;8.93;72.72;100143.91;5059756;28;20033;-76
2021/05/12 00:28:09;;;;;;;12.27;2.25;;;;;;;8.88;72.67;100143.94;5071367;28;20052;-76
2021/05/12 00:30:35;;;;;;;9.10;1.60;;;;;;;8.89;72.40;100142.84;5044948;28;20067;-75
2021/05/12 00:33:01;;;;;;;7.25;1.50;;;;;;;8.87;72.56;100139.53;5043975;28;20032;-75
2021/05/12 00:35:26;;;;;;;12.05;1.92;;;;;;;8.85;72.53;100137.03;5016640;28;20112;-75
2021/05/12 00:37:52;;;;;;;7.40;1.83;;;;;;;8.82;72.74;100137.63;5022196;28;20041;-75
2021/05/12 00:40:17;;;;;;;12.20;1.70;;;;;;;8.77;72.28;100128.53;5024064;28;20037;-75
2021/05/12 00:42:43;;;;;;;8.85;1.80;;;;;;;8.76;72.58;100133.25;5046743;28;20072;-75
2021/05/12 00:45:14;;;;;;;8.93;1.38;;;;;;;8.71;72.59;100131.34;5042052;28;20029;-76
2021/05/12 00:47:39;;;;;;;8.25;1.30;;;;;;;8.69;72.55;100127.22;5024054;28;20378;-75
2021/05/12 00:50:06;;;;;;;9.30;1.50;;;;;;;8.69;72.59;100128.06;4996781;28;20032;-76
2021/05/12 00:52:32;;;;;;;10.50;1.70;;;;;;;8.63;72.76;100122.84;5025555;28;20056;-75
2021/05/12 00:54:57;;;;;;;10.98;1.80;;;;;;;8.61;73.00;100120.41;5017156;28;20033;-76
2021/05/12 00:57:23;;;;;;;7.72;1.55;;;;;;;8.63;72.84;100120.09;5030871;28;20100;-76
2021/05/12 00:59:50;;;;;;;7.07;1.70;;;;;;;8.60;72.91;100113.19;5022532;28;20044;-76
2021/05/12 01:02:16;;;;;;;6.38;1.52;;;;;;;8.56;73.15;100109.38;5041104;28;20037;-76
2021/05/12 01:04:41;;;;;;;11.30;1.92;;;;;;;8.52;72.85;100111.03;4997405;28;20064;-76
2021/05/12 01:07:07;;;;;;;9.43;2.00;;;;;;;8.49;73.07;100115.22;5061649;28;20049;-76
2021/05/12 01:09:32;;;;;;;8.75;2.20;;;;;;;8.47;73.37;100108.34;5031146;28;20480;-76
2021/05/12 01:11:58;;;;;;;8.38;2.05;;;;;;;8.44;72.98;100100.59;5036704;28;20029;-76
2021/05/12 01:14:25;;;;;;;7.88;2.10;;;;;;;8.45;73.08;100096.72;5047340;28;20044;-76
2021/05/12 01:16:50;;;;;;;9.02;1.67;;;;;;;8.44;73.13;100098.69;5027956;28;20024;-75
2021/05/12 01:19:16;;;;;;;10.90;2.03;;;;;;;8.45;73.06;100094.78;5011571;28;20139;-76
2021/05/12 01:21:41;;;;;;;8.38;2.00;;;;;;;8.34;73.10;100095.13;5027990;28;20029;-75
2021/05/12 01:24:07;;;;;;;7.03;2.08;;;;;;;8.36;73.36;100090.13;5042845;28;20056;-76
2021/05/12 01:26:32;;;;;;;6.90;1.92;;;;;;;8.36;73.25;100090.97;5039374;28;20030;-75
2021/05/12 01:28:58;;;;;;;10.10;2.65;;;;;;;8.31;73.43;100087.41;5011970;28;20145;-76
2021/05/12 01:31:34;;;;;;;5.18;2.20;;;;;;;8.27;73.40;100082.47;5026918;28;20032;-76
2021/05/12 01:34:01;;;;;;;7.32;2.17;;;;;;;8.25;73.46;100081.91;5009835;28;20036;-76
2021/05/12 01:36:26;;;;;;;14.15;2.65;;;;;;;8.24;73.73;100087.72;5007409;28;20029;-76
2021/05/12 01:38:52;;;;;;;7.70;2.50;;;;;;;8.25;73.55;100084.69;5052994;28;20052;-75
2021/05/12 01:41:18;;;;;;;11.40;2.90;;;;;;;8.22;73.61;100079.75;5009141;28;20055;-75
2021/05/12 01:43:43;;;;;;;8.25;2.80;;;;;;;8.16;73.66;100083.66;5000565;28;20060;-76
2021/05/12 01:46:09;;;;;;;8.80;2.80;;;;;;;8.18;73.71;100080.59;5016453;28;20033;-76
2021/05/12 01:48:35;;;;;;;12.02;3.05;;;;;;;8.17;73.95;100077.00;5056244;28;20084;-76
2021/05/12 01:51:02;;;;;;;10.07;2.78;;;;;;;8.11;73.88;100072.63;5006626;28;20032;-76
2021/05/12 01:53:27;;;;;;;9.45;3.10;;;;;;;8.15;74.04;100068.16;5022182;28;20029;-76
2021/05/12 01:55:53;;;;;;;9.40;3.38;;;;;;;8.10;74.06;100070.16;5024656;28;20381;-76
2021/05/12 01:58:19;;;;;;;13.00;3.13;;;;;;;8.04;74.37;100064.66;5008843;28;20029;-76
2021/05/12 02:00:46;;;;;;;11.95;3.30;;;;;;;8.05;73.96;100068.22;5016955;28;20045;-76
2021/05/12 02:03:11;;;;;;;13.68;3.03;;;;;;;8.02;74.21;100057.75;5010061;28;20362;-75
2021/05/12 02:05:38;;;;;;;6.95;2.90;;;;;;;8.02;74.45;100071.56;5005256;28;20091;-75
2021/05/12 02:08:05;;;;;;;8.50;2.88;;;;;;;8.03;74.07;100057.47;5022782;28;20056;-76
2021/05/12 02:10:31;;;;;;;11.00;3.10;;;;;;;7.98;74.42;100051.16;5067248;28;20146;-75
2021/05/12 02:12:56;;;;;;;6.70;2.70;;;;;;;7.98;74.10;100049.22;5049607;28;20036;-76
2021/05/12 02:15:22;;;;;;;8.75;3.10;;;;;;;7.97;74.05;100049.50;5041870;28;20036;-75
2021/05/12 02:17:47;;;;;;;8.10;2.85;;;;;;;7.93;74.28;100046.47;5009132;28;20108;-75
2021/05/12 02:20:14;;;;;;;8.25;2.70;;;;;;;7.92;74.37;100041.25;4988626;28;20539;-76
2021/05/12 02:22:40;;;;;;;10.85;2.72;;;;;;;7.94;74.01;100042.63;5018851;28;20378;-76
2021/05/12 02:25:06;;;;;;;12.43;3.25;;;;;;;7.89;73.91;100030.78;4993839;28;20028;-75
2021/05/12 02:27:31;;;;;;;8.25;3.10;;;;;;;7.85;74.24;100030.50;5006549;28;20109;-75
2021/05/12 02:30:01;;;;;;;10.25;2.85;;;;;;;7.83;74.38;100033.56;5034158;28;20119;-76
2021/05/12 02:32:28;;;;;;;10.63;3.28;;;;;;;7.79;74.12;100026.13;5046853;28;20605;-76
2021/05/12 02:34:53;;;;;;;9.57;3.10;;;;;;;7.80;74.28;100014.78;5033982;28;20037;-75
2021/05/12 02:37:19;;;;;;;10.23;3.65;;;;;;;7.78;74.14;100014.25;5035771;28;20155;-75
2021/05/12 02:39:44;;;;;;;9.27;3.63;;;;;;;7.80;74.21;100013.94;5004769;28;20039;-76
2021/05/12 02:42:10;;;;;;;9.70;3.40;;;;;;;7.75;74.05;100012.06;5040245;28;20029;-76
2021/05/12 02:44:35;;;;;;;8.80;3.75;;;;;;;7.74;73.98;100018.69;5051851;28;20024;-76
2021/05/12 02:47:01;;;;;;;12.50;3.78;;;;;;;7.71;74.15;100007.38;5018767;28;20485;-76
2021/05/12 02:49:26;;;;;;;9.73;3.72;;;;;;;7.71;74.31;100013.72;5008287;28;20025;-76
2021/05/12 02:51:52;;;;;;;12.85;3.60;;;;;;;7.71;74.04;100018.44;5032423;28;20492;-76
2021/05/12 02:54:19;;;;;;;8.13;3.60;;;;;;;7.66;73.90;100011.03;5041501;28;20040;-76
2021/05/12 02:56:44;;;;;;;10.02;4.15;;;;;;;7.68;74.30;100010.72;5004422;28;20128;-76
2021/05/12 02:59:10;;;;;;;9.40;3.50;;;;;;;7.63;74.08;100008.81;5019649;28;20036;-75
2021/05/12 03:01:36;;;;;;;6.43;3.50;;;;;;;7.61;74.11;100000.00;5038522;28;20082;-76
2021/05/12 03:04:02;;;;;;;10.10;3.97;;;;;;;7.56;74.41;99998.09;5039498;28;20029;-76
2021/05/12 03:06:27;;;;;;;11.60;3.88;;;;;;;7.53;74.67;100006.13;5031333;28;20064;-77
2021/05/12 03:08:53;;;;;;;15.63;4.18;;;;;;;7.56;74.22;100005.56;5065135;28;20040;-75
2021/05/12 03:11:18;;;;;;;10.38;4.30;;;;;;;7.51;74.42;99995.34;4991247;28;20032;-76
2021/05/12 03:13:44;;;;;;;7.40;3.90;;;;;;;7.55;74.30;99995.59;5005218;28;20025;-76
2021/05/12 03:16:09;;;;;;;8.95;3.80;;;;;;;7.54;74.33;99999.50;5011343;28;20101;-76
2021/05/12 03:18:35;;;;;;;9.35;4.00;;;;;;;7.52;74.37;99994.25;4987523;28;20351;-76
2021/05/12 03:21:01;;;;;;;9.38;3.80;;;;;;;7.51;74.54;99994.53;5037090;28;20114;-76
2021/05/12 03:23:26;;;;;;;12.70;3.90;;;;;;;7.51;74.54;99986.25;5037482;28;20040;-76
2021/05/12 03:25:52;;;;;;;8.88;3.92;;;;;;;7.52;74.84;99987.88;5055955;28;20048;-75
2021/05/12 03:28:17;;;;;;;8.45;4.05;;;;;;;7.55;75.03;99981.78;5047137;28;20370;-76
2021/05/12 03:30:43;;;;;;;10.48;3.80;;;;;;;7.53;74.64;99982.09;5006577;28;20029;-76
2021/05/12 03:33:09;;;;;;;9.55;4.28;;;;;;;7.55;75.03;99976.25;4992887;28;20071;-76
2021/05/12 03:35:35;;;;;;;8.35;4.05;;;;;;;7.59;75.11;99982.88;5037040;28;20021;-76
2021/05/12 03:38:01;;;;;;;9.48;4.00;;;;;;;7.64;75.01;99974.56;5036771;28;20366;-76
2021/05/12 03:40:26;;;;;;;10.55;4.53;;;;;;;7.64;75.14;99968.22;5001702;28;20037;-75
2021/05/12 03:42:52;;;;;;;7.88;3.85;;;;;;;7.65;75.23;99967.09;5019151;28;20044;-76
2021/05/12 03:45:18;;;;;;;9.15;4.05;;;;;;;7.71;75.27;99963.16;5053680;28;20029;-76
2021/05/12 03:47:43;;;;;;;11.90;3.53;;;;;;;7.71;75.56;99968.69;4990036;28;20040;-76
2021/05/12 03:50:09;;;;;;;10.50;3.95;;;;;;;7.72;75.65;99960.13;5051821;28;20025;-76
2021/05/12 03:52:36;;;;;;;8.63;3.70;;;;;;;7.74;75.79;99962.59;5030928;28;20501;-75
2021/05/12 03:55:01;;;;;;;5.15;2.90;;;;;;;7.77;75.66;99960.09;4984421;28;20104;-76
2021/05/12 03:57:27;;;;;;;11.27;3.70;;;;;;;7.80;75.90;99959.50;5036573;28;20537;-75
2021/05/12 03:59:52;;;;;;;10.18;3.45;;;;;;;7.82;76.19;99962.78;5016357;28;20037;-75
2021/05/12 04:02:18;;;;;;;9.48;2.80;;;;;;;7.85;76.42;99955.84;5038040;28;20051;-75
2021/05/12 04:04:43;;;;;;;7.50;2.88;;;;;;;7.89;76.35;99953.34;5022359;28;20040;-76
2021/05/12 04:07:09;;;;;;;10.90;3.13;;;;;;;7.96;76.19;99949.13;5031220;28;20032;-76
2021/05/12 04:09:34;;;;;;;13.15;3.22;;;;;;;7.96;76.92;99951.06;5002219;28;20021;-75
2021/05/12 04:12:00;;;;;;;9.85;2.80;;;;;;;7.97;76.66;99953.56;5037278;28;20032;-75
2021/05/12 04:14:25;;;;;;;11.27;2.75;;;;;;;7.98;76.74;99952.44;5020750;28;20033;-75
2021/05/12 04:16:52;;;;;;;8.93;2.40;;;;;;;8.00;76.82;99944.69;5005968;28;20029;-75
2021/05/12 04:19:19;;;;;;;10.18;2.63;;;;;;;8.05;77.05;99941.88;5052011;28;20029;-75
2021/05/12 04:21:44;;;;;;;11.00;2.92;;;;;;;8.08;76.88;99940.47;5037561;28;20370;-75
2021/05/12 04:24:10;;;;;;;11.57;3.20;;;;;;;8.12;76.92;99940.69;5021055;28;20059;-75
2021/05/12 04:26:35;;;;;;;13.32;2.88;;;;;;;8.16;76.61;99942.59;5038327;28;20038;-76
2021/05/12 04:29:01;;;;;;;12.00;3.15;;;;;;;8.15;77.21;99938.16;5014261;28;20433;-76
2021/05/12 04:31:26;;;;;;;10.35;3.63;;;;;;;8.17;77.16;99944.22;5009825;28;20493;-76
2021/05/12 04:33:52;;;;;;;16.20;3.50;;;;;;;8.19;77.81;99943.94;5008735;28;20037;-77
2021/05/12 04:36:17;;;;;;;12.18;3.75;;;;;;;8.19;77.71;99941.16;5058865;28;20021;-76
2021/05/12 04:38:43;;;;;;;12.85;3.58;;;;;;;8.21;77.32;99945.28;5052517;28;20425;-76
2021/05/12 04:41:08;;;;;;;8.50;3.00;;;;;;;8.26;76.94;99936.13;5008383;28;20040;-76
2021/05/12 04:43:34;;;;;;;11.23;3.85;;;;;;;8.29;76.97;99939.13;5033942;28;20036;-76
2021/05/12 04:46:00;;;;;;;12.07;3.45;;;;;;;8.29;76.93;99941.88;4982071;28;20038;-76
2021/05/12 04:48:25;;;;;;;15.93;3.83;;;;;;;8.31;77.02;99935.25;4991037;28;20075;-75
2021/05/12 04:50:51;;;;;;;10.57;3.22;;;;;;;8.32;76.60;99925.81;5038864;28;20028;-76
2021/05/12 04:53:16;;;;;;;9.75;3.10;;;;;;;8.33;76.92;99928.31;5023901;28;20040;-76
2021/05/12 04:55:42;;;;;;;8.25;2.65;;;;;;;8.35;76.76;99919.69;5025290;28;20512;-76
2021/05/12 04:58:07;;;;;;;11.02;3.10;;;;;;;8.39;76.76;99915.28;4991610;28;20682;-76
2021/05/12 05:00:33;;;;;;;12.63;3.50;;;;;;;8.38;77.06;99914.41;5019622;28;20528;-76
2021/05/12 05:02:59;;;;;;;9.70;2.88;;;;;;;8.42;77.01;99920.22;5007970;28;20029;-75
2021/05/12 05:05:25;;;;;;;12.77;3.13;;;;;;;8.43;77.04;99924.63;5036444;28;20036;-76
2021/05/12 05:07:50;;;;;;;12.30;3.20;;;;;;;8.47;76.84;99918.22;5034968;28;20033;-76
2021/05/12 05:10:16;;;;;;;10.77;3.33;;;;;;;8.48;76.57;99916.25;5023778;28;20029;-76
2021/05/12 05:12:41;;;;;;;9.38;2.85;;;;;;;8.48;76.58;99916.25;5040643;28;20233;-76
2021/05/12 05:15:07;;;;;;;8.98;2.85;;;;;;;8.50;76.64;99912.09;4980038;28;20025;-75
2021/05/12 05:17:33;;;;;;;12.73;3.00;;;;;;;8.60;76.69;99913.91;5008811;28;20029;-76
2021/05/12 05:19:59;;;;;;;10.68;3.45;;;;;;;8.62;76.76;99911.66;5006747;28;20362;-75
2021/05/12 05:22:27;;;;;;;12.98;3.50;;;;;;;8.70;76.95;99908.25;4990768;28;20024;-76
2021/05/12 05:24:53;;;;;;;10.02;3.40;;;;;;;8.77;77.21;99907.03;5018671;28;20040;-75
2021/05/12 05:27:18;;;;;;;11.02;2.92;;;;;;;8.83;77.86;99911.41;5014531;28;20029;-76
2021/05/12 05:29:44;;;;;;;9.82;2.53;;;;;;;8.88;77.86;99914.09;4990841;28;20024;-76
2021/05/12 05:32:10;;;;;;;12.80;3.10;;;;;;;8.86;78.56;99908.88;5062749;28;20041;-76
2021/05/12 05:34:35;;;;;;;13.27;2.92;;;;;;;8.93;78.53;99914.03;5012702;28;20386;-76
2021/05/12 05:37:01;;;;;;;10.52;2.75;;;;;;;8.94;78.44;99915.66;5050758;28;20041;-76
2021/05/12 05:39:35;;;;;;;14.38;3.45;;;;;;;8.95;79.38;99909.03;5013865;28;20029;-76
2021/05/12 05:42:04;;;;;;;11.57;2.97;;;;;;;9.02;78.65;99911.41;5049154;28;20451;-76
2021/05/12 05:44:30;;;;;;;13.48;3.20;;;;;;;9.06;78.74;99913.31;5011079;28;20131;-75
2021/05/12 05:46:56;;;;;;;14.05;2.92;;;;;;;9.08;78.82;99913.00;5005853;28;20025;-76
2021/05/12 05:49:22;;;;;;;12.10;3.40;;;;;;;9.10;78.83;99913.53;5022407;28;20040;-76
2021/05/12 05:51:47;;;;;;;13.82;3.35;;;;;;;9.13;79.34;99910.97;5026447;28;20060;-76
2021/05/12 05:54:13;;;;;;;14.40;3.33;;;;;;;9.14;79.24;99909.88;5023019;28;20033;-76
2021/05/12 05:56:38;;;;;;;12.45;2.95;;;;;;;9.19;79.24;99908.94;5041860;28;20047;-76
2021/05/12 05:59:04;;;;;;;16.42;3.72;;;;;;;9.22;79.68;99902.84;5006417;28;20034;-76
2021/05/12 06:01:29;;;;;;;13.25;3.20;;;;;;;9.25;79.13;99899.47;5032687;28;20033;-76
2021/05/12 06:03:55;;;;;;;10.98;3.60;;;;;;;9.27;79.73;99899.16;5003322;28;20438;-76
2021/05/12 06:06:20;;;;;;;11.27;3.05;;;;;;;9.32;79.57;99899.06;5046707;28;20032;-76
2021/05/12 06:08:46;;;;;;;10.05;3.28;;;;;;;9.36;79.68;99900.09;5061046;28;20028;-76
2021/05/12 06:11:11;;;;;;;14.20;3.17;;;;;;;9.40;79.61;99901.16;5021995;28;20039;-76
2021/05/12 06:13:37;;;;;;;14.63;3.22;;;;;;;9.45;79.63;99909.41;5027956;28;20040;-75
2021/05/12 06:16:05;;;;;;;10.63;2.88;;;;;;;9.49;79.43;99901.31;4989114;28;20026;-76
2021/05/12 06:18:30;;;;;;;10.93;2.63;;;;;;;9.53;80.36;99905.94;5036002;28;20086;-76
2021/05/12 06:20:56;;;;;;;14.05;3.08;;;;;;;9.59;80.60;99901.97;5035646;28;20025;-75
2021/05/12 06:23:22;;;;;;;12.75;3.10;;;;;;;9.65;81.07;99890.78;5020337;28;20041;-79
2021/05/12 06:25:50;;;;;;;10.05;2.90;;;;;;;9.68;80.91;99895.72;5053261;28;20036;-76
2021/05/12 06:28:16;;;;;;;12.45;3.17;;;;;;;9.73;81.31;99890.09;5023947;28;20029;-76
2021/05/12 06:30:48;;;;;;;14.32;2.92;;;;;;;9.76;81.54;99889.50;5014422;28;20541;-76
2021/05/12 06:33:13;;;;;;;13.30;2.90;;;;;;;9.81;81.10;99892.19;5035416;28;20268;-75
2021/05/12 06:35:39;;;;;;;11.05;2.58;;;;;;;9.84;80.77;99886.03;5054336;28;20033;-78
2021/05/12 06:38:04;;;;;;;11.75;2.88;;;;;;;9.84;81.06;99889.63;5021995;28;20516;-75
2021/05/12 06:40:30;;;;;;;10.85;2.88;;;;;;;9.90;80.60;99882.03;5033574;28;20047;-77
2021/05/12 06:42:58;;;;;;;14.68;3.53;;;;;;;9.92;81.06;99885.31;5019909;28;20105;-76
2021/05/12 06:45:24;;;;;;;12.07;2.92;;;;;;;9.95;80.89;99884.72;4987851;28;20116;-76
2021/05/12 06:47:53;;;;;;;13.38;2.97;;;;;;;9.98;81.21;99881.31;5047589;28;20044;-76
2021/05/12 06:50:19;;;;;;;14.05;3.00;;;;;;;10.01;81.28;99877.94;5028999;28;20028;-77
2021/05/12 06:52:56;;;;;;;10.52;2.60;;;;;;;10.04;80.62;99882.88;5029856;28;20049;-77
2021/05/12 06:55:22;;;;;;;15.27;3.53;;;;;;;10.09;81.18;99881.16;5023191;28;20070;-79
2021/05/12 06:57:48;;;;;;;10.88;2.90;;;;;;;10.11;80.73;99878.88;5023395;28;20030;-77
2021/05/12 07:00:14;;;;;;;10.43;2.70;;;;;;;10.15;81.48;99888.25;5006668;28;20029;-77
2021/05/12 07:02:40;;;;;;;11.23;2.80;;;;;;;10.20;81.86;99879.81;5059057;28;20040;-77
2021/05/12 07:05:06;;;;;;;9.70;2.75;;;;;;;10.25;81.69;99876.94;5018232;28;20052;-77
2021/05/12 07:07:31;;;;;;;10.70;2.67;;;;;;;10.30;81.75;99879.63;5013504;28;20044;-77
2021/05/12 07:09:57;;;;;;;11.30;2.90;;;;;;;10.35;81.74;99879.53;5070105;28;20033;-77
2021/05/12 07:12:22;;;;;;;10.43;2.38;;;;;;;10.41;81.21;99877.50;5039637;28;20085;-78
2021/05/12 07:14:48;;;;;;;10.68;2.63;;;;;;;10.44;81.23;99876.88;5038890;28;20063;-77
2021/05/12 07:17:13;;;;;;;8.43;2.63;;;;;;;10.46;81.47;99877.38;5032599;28;20033;-77
2021/05/12 07:19:39;;;;;;;11.30;2.88;;;;;;;10.49;81.96;99880.38;5020562;28;20106;-77
2021/05/12 07:22:04;;;;;;;6.75;2.45;;;;;;;10.52;81.44;99881.69;5024549;28;20033;-77
2021/05/12 07:24:30;;;;;;;10.20;2.88;;;;;;;10.54;81.30;99882.22;5069442;28;20052;-77
2021/05/12 07:26:55;;;;;;;11.40;2.80;;;;;;;10.56;81.36;99881.91;5019643;28;20024;-77
2021/05/12 07:29:21;;;;;;;7.00;2.60;;;;;;;10.56;80.94;99874.41;5003392;28;20040;-77
2021/05/12 07:31:46;;;;;;;9.98;2.67;;;;;;;10.58;81.08;99879.63;5039288;28;20087;-77
2021/05/12 07:34:13;;;;;;;10.40;2.78;;;;;;;10.61;81.34;99884.56;5033697;28;20036;-77
2021/05/12 07:36:38;;;;;;;8.10;2.47;;;;;;;10.60;81.31;99880.16;5009245;28;20049;-77
2021/05/12 07:39:07;;;;;;;13.52;2.88;;;;;;;10.58;81.89;99882.41;5037475;28;20025;-77
2021/05/12 07:41:34;;;;;;;11.27;2.95;;;;;;;10.60;81.74;99883.75;5069427;28;20037;-78
2021/05/12 07:44:00;;;;;;;8.07;2.58;;;;;;;10.61;81.30;99881.78;5042819;28;20048;-78
2021/05/12 07:46:25;;;;;;;5.85;2.17;;;;;;;10.60;81.00;99880.16;5020212;28;20461;-78
2021/05/12 07:48:51;;;;;;;9.25;2.50;;;;;;;10.60;81.17;99877.38;5060224;28;20032;-77
2021/05/12 07:51:16;;;;;;;9.18;2.88;;;;;;;10.60;80.53;99872.66;5047294;28;20029;-78
2021/05/12 07:53:42;;;;;;;7.72;2.40;;;;;;;10.61;80.84;99876.25;5044604;28;20029;-77
2021/05/12 07:56:08;;;;;;;6.95;2.20;;;;;;;10.62;81.20;99872.34;5030648;28;20040;-78
2021/05/12 07:58:33;;;;;;;7.30;2.10;;;;;;;10.64;81.24;99868.13;5067558;28;20032;-78
2021/05/12 08:01:05;;;;;;;9.00;2.72;;;;;;;10.67;81.20;99872.22;5050830;28;20033;-77
2021/05/12 08:03:31;;;;;;;7.80;2.87;;;;;;;10.72;81.64;99870.16;5056306;28;20086;-77
2021/05/12 08:05:57;;;;;;;8.65;2.95;;;;;;;10.78;83.69;99868.13;5039645;28;20033;-77
2021/05/12 08:08:22;;;;;;;7.30;2.45;;;;;;;10.84;82.91;99864.09;5049254;28;20029;-77
2021/05/12 08:10:48;;;;;;;10.95;3.35;;;;;;;10.85;84.01;99865.72;5013129;28;20033;-77
2021/05/12 08:13:13;;;;;;;9.82;3.25;;;;;;;10.93;83.66;99861.41;5051990;28;20021;-78
2021/05/12 08:15:39;;;;;;;8.38;3.17;;;;;;;10.99;83.39;99859.31;5050967;28;20041;-78
2021/05/12 08:18:04;;;;;;;8.55;3.42;;;;;;;11.04;83.00;99854.47;5052405;28;20033;-78
2021/05/12 08:20:31;;;;;;;7.78;3.30;;;;;;;11.11;83.54;99857.63;5031230;28;20036;-78
2021/05/12 08:22:56;;;;;;;9.32;3.53;;;;;;;11.17;83.43;99855.53;5067479;28;20064;-78
2021/05/12 08:25:22;;;;;;;10.02;4.00;;;;;;;11.22;83.62;99852.66;5050231;28;20037;-78
2021/05/12 08:27:48;;;;;;;8.68;4.10;;;;;;;11.29;83.03;99850.25;5049881;28;20029;-78
2021/05/12 08:30:14;;;;;;;10.23;4.30;;;;;;;11.38;83.75;99851.16;5034759;28;20055;-78
2021/05/12 08:32:40;;;;;;;8.15;4.60;;;;;;;11.47;83.89;99851.22;5038739;28;20031;-78
2021/05/12 08:35:06;;;;;;;8.13;4.15;;;;;;;11.52;83.65;99842.75;5051176;28;20413;-78
2021/05/12 08:37:31;;;;;;;7.03;4.00;;;;;;;11.59;83.66;99845.91;5068612;28;20138;-78
2021/05/12 08:39:57;;;;;;;7.25;4.15;;;;;;;11.66;83.25;99847.41;5051050;28;20033;-77
2021/05/12 08:42:22;;;;;;;8.35;4.20;;;;;;;11.72;82.92;99835.84;5051691;28;20021;-78
2021/05/12 08:44:48;;;;;;;7.53;3.72;;;;;;;11.79;83.10;99839.00;5004926;28;20056;-78
2021/05/12 08:47:15;;;;;;;7.13;3.58;;;;;;;11.84;82.18;99838.88;5036971;28;20040;-77
2021/05/12 08:49:41;;;;;;;8.02;4.30;;;;;;;11.94;82.94;99828.63;5049961;28;20029;-77
2021/05/12 08:52:06;;;;;;;13.38;5.25;;;;;;;12.01;83.21;99827.03;5037622;28;20005;-77
2021/05/12 08:54:35;;;;;;;12.07;4.60;;;;;;;12.10;83.39;99826.25;5032197;28;20024;-77
2021/05/12 08:57:03;;;;;;;7.15;4.00;;;;;;;12.15;83.15;99817.75;5003533;28;20037;-77
2021/05/12 08:59:29;;;;;;;7.80;3.83;;;;;;;12.21;83.25;99811.72;5050737;28;20160;-77
2021/05/12 09:01:55;;;;;;;8.80;3.95;;;;;;;12.28;83.17;99809.28;5037688;28;20464;-77
2021/05/12 09:04:21;;;;;;;9.82;4.35;;;;;;;12.35;82.98;99816.34;5053345;28;20097;-77
2021/05/12 09:06:47;;;;;;;8.93;4.78;;;;;;;12.40;82.33;99808.69;5034957;28;20056;-77
2021/05/12 09:09:14;;;;;;;11.82;5.47;;;;;;;12.48;83.17;99807.88;5037551;28;20022;-77
2021/05/12 09:11:39;;;;;;;9.73;5.10;;;;;;;12.59;83.88;99797.25;5056881;28;20024;-77
2021/05/12 09:14:05;;;;;;;9.07;5.10;;;;;;;12.73;84.55;99800.72;5019650;28;20037;-77
2021/05/12 09:16:31;;;;;;;13.10;4.85;;;;;;;12.89;84.16;99797.44;5029187;28;20045;-77
2021/05/12 09:19:03;;;;;;;9.93;4.13;;;;;;;13.06;83.38;99797.44;5054613;28;20084;-77
2021/05/12 09:21:56;;;;;;;8.65;4.35;;;;;;;13.25;82.99;99787.94;5042061;28;20028;-77
2021/05/12 09:24:34;;;;;;;9.68;3.72;;;;;;;13.42;82.70;99787.94;5051500;28;20029;-77
2021/05/12 09:27:00;;;;;;;9.48;3.90;;;;;;;13.56;82.14;99791.34;5039885;28;21252;-77
2021/05/12 09:29:35;;;;;;;5.78;3.10;;;;;;;13.68;80.79;99779.53;5041034;28;20080;-77
2021/05/12 09:32:04;;;;;;;7.40;3.40;;;;;;;13.78;80.44;99778.31;5026785;28;20032;-77
2021/05/12 09:34:47;;;;;;;7.95;2.75;;;;;;;13.89;80.03;99768.44;5026113;28;20036;-77
2021/05/12 09:37:31;;;;;;;;;;;;;;;14.00;79.00;99774.47;5027496;28;20048;-77
2021/05/12 09:39:58;;;;;;;7.13;2.90;;;;;;;14.12;79.32;99768.16;5057428;28;19913;-77
2021/05/12 09:42:24;;;;;;;8.10;2.53;;;;;;;14.16;78.10;99767.16;5049452;28;20037;-77
2021/05/12 09:45:14;;;;;;;4.38;2.33;;;;;;;14.28;77.77;99760.88;5044357;28;20048;-77
2021/05/12 09:47:39;;;;;;;5.60;2.40;;;;;;;14.34;77.50;99762.31;5035052;28;20037;-77
2021/05/12 09:50:24;;;;;;;9.52;2.63;;;;;;;14.37;76.66;99763.59;5039241;28;20055;-76
2021/05/12 09:52:55;;;;;;;6.25;2.30;;;;;;;14.36;76.20;99762.78;4995356;28;20025;-77
2021/05/12 09:55:31;;;;;;;5.75;2.60;;;;;;;14.40;76.85;99755.38;5046869;28;20055;-78
2021/05/12 09:58:09;;;;;;;5.88;2.60;;;;;;;14.48;76.70;99748.91;5032830;28;20107;-76
2021/05/12 10:00:42;;;;;;;4.22;2.30;;;;;;;14.57;76.59;99748.06;5051754;28;20040;-77
2021/05/12 10:03:11;;;;;;;6.75;2.75;;;;;;;14.67;77.31;99736.47;5046925;28;20080;-77
2021/05/12 10:05:57;;;;;;;6.80;2.40;;;;;;;14.82;76.18;99738.69;5032867;28;20064;-77
2021/05/12 10:08:27;;;;;;;5.18;2.35;;;;;;;14.97;76.52;99732.44;5042445;28;20033;-77
2021/05/12 10:10:56;;;;;;;6.70;2.00;;;;;;;15.10;74.91;99716.56;5031890;28;20044;-77
2021/05/12 10:13:22;;;;;;;4.25;1.67;;;;;;;15.23;73.41;99728.59;5047261;28;20084;-77
2021/05/12 10:15:48;;;;;;;5.93;1.60;;;;;;;15.34;73.13;99718.59;5015905;28;20067;-76
2021/05/12 10:18:13;;;;;;;3.08;1.15;;;;;;;15.47;72.86;99715.84;5031557;28;20089;-75
2021/05/12 10:20:39;;;;;;;4.65;1.50;;;;;;;15.54;72.34;99718.88;5060081;28;21280;-77
2021/05/12 10:23:05;;;;;;;7.97;1.80;;;;;;;15.61;71.71;99714.34;5016208;28;20030;-77
2021/05/12 10:25:30;;;;;;;4.50;1.40;;;;;;;15.70;71.31;99710.66;5018746;28;20040;-78
2021/05/12 10:27:58;;;;;;;5.63;1.95;;;;;;;15.73;70.71;99715.56;5051742;28;20025;-77
2021/05/12 10:30:23;;;;;;;4.03;1.33;;;;;;;15.75;70.54;99702.84;4995944;28;20561;-76
2021/05/12 10:32:53;;;;;;;4.63;1.45;;;;;;;15.78;70.45;99702.16;5049687;28;20037;-76
2021/05/12 10:35:38;;;;;;;5.05;1.80;;;;;;;15.81;70.45;99690.25;5013213;28;20025;-75
2021/05/12 10:38:04;;;;;;;3.38;1.40;;;;;;;15.84;70.75;99695.16;5005865;28;20136;-74
2021/05/12 10:40:32;;;;;;;4.57;1.23;;;;;;;15.89;70.25;99699.72;5030678;28;20509;-77
2021/05/12 10:43:11;;;;;;;4.22;1.15;;;;;;;15.89;69.87;99691.31;5026666;28;20026;-77
2021/05/12 10:45:49;;;;;;;2.95;1.25;;;;;;;15.95;69.81;99686.31;5035657;28;20436;-78
2021/05/12 10:48:33;;;;;;;3.22;1.52;;;;;;;15.99;69.93;99678.81;5050476;28;20127;-78
2021/05/12 10:51:01;;;;;;;4.30;1.15;;;;;;;16.05;70.26;99677.44;5037932;28;20025;-78
2021/05/12 10:53:31;;;;;;;4.38;1.10;;;;;;;16.11;70.52;99661.22;5008263;28;20077;-76
2021/05/12 10:55:56;;;;;;;2.67;1.35;;;;;;;16.14;69.73;99668.91;5032393;28;20463;-78
2021/05/12 10:58:32;;;;;;;4.07;1.10;;;;;;;16.27;69.61;99667.72;5036107;28;20029;-77
2021/05/12 11:01:03;;;;;;;2.92;1.50;;;;;;;16.35;69.54;99672.34;5025784;28;20046;-78
2021/05/12 11:03:50;;;;;;;6.13;1.33;;;;;;;16.39;67.52;99670.50;5013392;28;20029;-77
2021/05/12 11:06:23;;;;;;;5.07;1.38;;;;;;;16.44;66.87;99661.03;5060457;28;20040;-77
2021/05/12 11:09:01;;;;;;;;;;;;;;;16.45;66.22;99665.47;5033358;28;20038;-77
2021/05/12 11:11:26;;;;;;;4.03;1.30;;;;;;;16.45;66.52;99651.44;5050124;28;19980;-77
2021/05/12 11:13:52;;;;;;;6.50;1.58;;;;;;;16.48;66.40;99656.34;5013289;28;20377;-78
2021/05/12 11:16:20;;;;;;;6.60;1.65;;;;;;;16.53;66.97;99656.09;5035990;28;20486;-77
2021/05/12 11:18:50;;;;;;;7.50;1.50;;;;;;;16.56;66.30;99643.38;5016043;28;20101;-77
2021/05/12 11:21:16;;;;;;;6.25;1.63;;;;;;;16.65;66.44;99644.03;5012038;28;20053;-78
2021/05/12 11:24:00;;;;;;;6.05;1.65;;;;;;;16.80;67.25;99640.50;5032456;28;20021;-77
2021/05/12 11:26:43;;;;;;;3.65;1.70;;;;;;;16.92;67.14;99654.47;5049936;28;20029;-77
2021/05/12 11:32:01;;;;;;;6.45;1.63;;;;;;;17.13;63.90;99645.00;5046049;28;20030;-78
2021/05/12 11:34:27;;;;;;;3.97;1.45;;;;;;;17.24;63.36;99642.47;5004973;28;20025;-78
2021/05/12 11:37:12;;;;;;;3.80;1.30;;;;;;;17.36;64.04;99636.81;5018024;28;20132;-78